sensor_id;sensor_type;location;lat;lon;timestamp;P1;durP1;ratioP1;P2;durP2;ratioP2
16669;SDS011;8448;52.034;5.158;2024-02-15T00:01:27;16.47;;;7.57;;
16669;SDS011;8448;52.034;5.158;2024-02-15T00:04:14;12.53;;;7.43;;
16669;SDS011;8448;52.034;5.158;2024-02-15T00:06:48;17.87;;;7.50;;
16669;SDS011;8448;52.034;5.158;2024-02-15T00:09:22;14.43;;;7.10;;
16669;SDS011;8448;52.034;5.158;2024-02-15T00:11:56;16.00;;;7.37;;
16669;SDS011;8448;52.034;5.158;2024-02-15T00:14:33;15.77;;;7.27;;
16669;SDS011;8448;52.034;5.158;2024-02-15T00:17:06;14.17;;;7.13;;
16669;SDS011;8448;52.034;5.158;2024-02-15T00:19:46;13.23;;;7.00;;
16669;SDS011;8448;52.034;5.158;2024-02-15T00:22:15;13.03;;;7.50;;
16669;SDS011;8448;52.034;5.158;2024-02-15T00:24:45;16.50;;;7.80;;
16669;SDS011;8448;52.034;5.158;2024-02-15T00:27:19;12.23;;;7.27;;
16669;SDS011;8448;52.034;5.158;2024-02-15T00:30:03;15.03;;;7.37;;
16669;SDS011;8448;52.034;5.158;2024-02-15T00:32:52;12.83;;;7.70;;
16669;SDS011;8448;52.034;5.158;2024-02-15T00:35:29;13.47;;;7.67;;
16669;SDS011;8448;52.034;5.158;2024-02-15T00:38:13;18.73;;;8.67;;
16669;SDS011;8448;52.034;5.158;2024-02-15T00:41:08;13.20;;;7.67;;
16669;SDS011;8448;52.034;5.158;2024-02-15T00:43:45;12.13;;;6.93;;
16669;SDS011;8448;52.034;5.158;2024-02-15T00:46:34;15.13;;;7.20;;
16669;SDS011;8448;52.034;5.158;2024-02-15T00:49:12;11.73;;;7.27;;
16669;SDS011;8448;52.034;5.158;2024-02-15T00:51:49;12.77;;;7.70;;
16669;SDS011;8448;52.034;5.158;2024-02-15T00:54:28;14.23;;;7.80;;
16669;SDS011;8448;52.034;5.158;2024-02-15T00:57:14;11.37;;;6.97;;
16669;SDS011;8448;52.034;5.158;2024-02-15T00:59:53;13.27;;;7.23;;
16669;SDS011;8448;52.034;5.158;2024-02-15T01:02:31;12.97;;;7.20;;
16669;SDS011;8448;52.034;5.158;2024-02-15T01:05:07;13.53;;;7.83;;
16669;SDS011;8448;52.034;5.158;2024-02-15T01:08:01;17.27;;;8.53;;
16669;SDS011;8448;52.034;5.158;2024-02-15T01:10:36;13.53;;;8.70;;
16669;SDS011;8448;52.034;5.158;2024-02-15T01:13:05;16.03;;;8.83;;
16669;SDS011;8448;52.034;5.158;2024-02-15T01:15:55;17.00;;;9.60;;
16669;SDS011;8448;52.034;5.158;2024-02-15T01:18:28;18.30;;;10.83;;
16669;SDS011;8448;52.034;5.158;2024-02-15T01:21:00;20.13;;;11.83;;
16669;SDS011;8448;52.034;5.158;2024-02-15T01:23:44;20.20;;;11.80;;
16669;SDS011;8448;52.034;5.158;2024-02-15T01:26:19;21.27;;;13.20;;
16669;SDS011;8448;52.034;5.158;2024-02-15T01:29:05;22.33;;;14.13;;
16669;SDS011;8448;52.034;5.158;2024-02-15T01:31:47;22.47;;;14.43;;
16669;SDS011;8448;52.034;5.158;2024-02-15T01:34:30;23.17;;;14.37;;
16669;SDS011;8448;52.034;5.158;2024-02-15T01:37:04;22.10;;;15.93;;
16669;SDS011;8448;52.034;5.158;2024-02-15T01:39:43;25.83;;;15.83;;
16669;SDS011;8448;52.034;5.158;2024-02-15T01:42:22;23.83;;;15.47;;
16669;SDS011;8448;52.034;5.158;2024-02-15T01:44:58;24.00;;;16.67;;
16669;SDS011;8448;52.034;5.158;2024-02-15T01:47:36;26.07;;;17.10;;
16669;SDS011;8448;52.034;5.158;2024-02-15T01:50:27;26.63;;;17.40;;
16669;SDS011;8448;52.034;5.158;2024-02-15T01:53:15;26.43;;;16.90;;
16669;SDS011;8448;52.034;5.158;2024-02-15T01:56:08;27.07;;;16.87;;
16669;SDS011;8448;52.034;5.158;2024-02-15T01:58:56;26.17;;;16.83;;
16669;SDS011;8448;52.034;5.158;2024-02-15T02:01:32;24.63;;;16.50;;
16669;SDS011;8448;52.034;5.158;2024-02-15T02:04:17;29.20;;;16.40;;
16669;SDS011;8448;52.034;5.158;2024-02-15T02:07:03;23.53;;;15.33;;
16669;SDS011;8448;52.034;5.158;2024-02-15T02:09:44;23.27;;;15.23;;
16669;SDS011;8448;52.034;5.158;2024-02-15T02:12:20;23.43;;;15.07;;
16669;SDS011;8448;52.034;5.158;2024-02-15T02:15:21;21.43;;;14.47;;
16669;SDS011;8448;52.034;5.158;2024-02-15T02:18:20;22.17;;;14.00;;
16669;SDS011;8448;52.034;5.158;2024-02-15T02:21:20;23.43;;;13.60;;
16669;SDS011;8448;52.034;5.158;2024-02-15T02:24:11;20.67;;;12.93;;
16669;SDS011;8448;52.034;5.158;2024-02-15T02:26:55;22.57;;;13.30;;
16669;SDS011;8448;52.034;5.158;2024-02-15T02:29:37;20.63;;;12.97;;
16669;SDS011;8448;52.034;5.158;2024-02-15T02:32:15;20.03;;;12.70;;
16669;SDS011;8448;52.034;5.158;2024-02-15T02:34:59;21.07;;;12.60;;
16669;SDS011;8448;52.034;5.158;2024-02-15T02:37:38;19.37;;;12.43;;
16669;SDS011;8448;52.034;5.158;2024-02-15T02:40:32;21.77;;;12.30;;
16669;SDS011;8448;52.034;5.158;2024-02-15T02:43:17;18.87;;;12.23;;
16669;SDS011;8448;52.034;5.158;2024-02-15T02:46:01;20.80;;;12.20;;
16669;SDS011;8448;52.034;5.158;2024-02-15T02:48:45;19.87;;;11.60;;
16669;SDS011;8448;52.034;5.158;2024-02-15T02:51:20;18.50;;;11.30;;
16669;SDS011;8448;52.034;5.158;2024-02-15T02:53:57;19.50;;;12.13;;
16669;SDS011;8448;52.034;5.158;2024-02-15T02:56:38;22.80;;;11.73;;
16669;SDS011;8448;52.034;5.158;2024-02-15T02:59:24;24.43;;;11.67;;
16669;SDS011;8448;52.034;5.158;2024-02-15T03:01:56;20.97;;;11.70;;
16669;SDS011;8448;52.034;5.158;2024-02-15T03:04:27;18.50;;;11.13;;
16669;SDS011;8448;52.034;5.158;2024-02-15T03:07:00;24.97;;;11.83;;
16669;SDS011;8448;52.034;5.158;2024-02-15T03:09:38;18.13;;;10.97;;
16669;SDS011;8448;52.034;5.158;2024-02-15T03:12:14;21.80;;;10.83;;
16669;SDS011;8448;52.034;5.158;2024-02-15T03:14:52;21.17;;;10.17;;
16669;SDS011;8448;52.034;5.158;2024-02-15T03:17:43;21.03;;;10.73;;
16669;SDS011;8448;52.034;5.158;2024-02-15T03:20:23;16.90;;;10.27;;
16669;SDS011;8448;52.034;5.158;2024-02-15T03:23:04;17.67;;;10.57;;
16669;SDS011;8448;52.034;5.158;2024-02-15T03:25:38;18.53;;;9.60;;
16669;SDS011;8448;52.034;5.158;2024-02-15T03:28:19;17.50;;;10.20;;
16669;SDS011;8448;52.034;5.158;2024-02-15T03:34:01;17.40;;;9.77;;
16669;SDS011;8448;52.034;5.158;2024-02-15T03:36:38;18.30;;;10.20;;
16669;SDS011;8448;52.034;5.158;2024-02-15T03:39:25;19.43;;;9.40;;
16669;SDS011;8448;52.034;5.158;2024-02-15T03:41:58;17.37;;;9.90;;
16669;SDS011;8448;52.034;5.158;2024-02-15T03:44:34;16.23;;;9.47;;
16669;SDS011;8448;52.034;5.158;2024-02-15T03:47:14;16.47;;;10.07;;
16669;SDS011;8448;52.034;5.158;2024-02-15T03:49:51;21.23;;;10.20;;
16669;SDS011;8448;52.034;5.158;2024-02-15T03:52:39;17.20;;;10.10;;
16669;SDS011;8448;52.034;5.158;2024-02-15T03:55:20;20.13;;;9.53;;
16669;SDS011;8448;52.034;5.158;2024-02-15T03:57:57;18.07;;;9.87;;
16669;SDS011;8448;52.034;5.158;2024-02-15T04:00:42;20.57;;;10.17;;
16669;SDS011;8448;52.034;5.158;2024-02-15T04:03:34;20.80;;;10.03;;
16669;SDS011;8448;52.034;5.158;2024-02-15T04:06:13;23.30;;;9.83;;
16669;SDS011;8448;52.034;5.158;2024-02-15T04:08:51;18.20;;;9.73;;
16669;SDS011;8448;52.034;5.158;2024-02-15T04:11:25;19.13;;;10.30;;
16669;SDS011;8448;52.034;5.158;2024-02-15T04:14:03;22.43;;;10.37;;
16669;SDS011;8448;52.034;5.158;2024-02-15T04:16:34;18.50;;;10.13;;
16669;SDS011;8448;52.034;5.158;2024-02-15T04:22:11;21.80;;;10.43;;
16669;SDS011;8448;52.034;5.158;2024-02-15T04:24:48;20.43;;;10.67;;
16669;SDS011;8448;52.034;5.158;2024-02-15T04:27:23;21.97;;;10.93;;
16669;SDS011;8448;52.034;5.158;2024-02-15T04:30:08;20.70;;;10.63;;
16669;SDS011;8448;52.034;5.158;2024-02-15T04:33:07;24.60;;;10.53;;
16669;SDS011;8448;52.034;5.158;2024-02-15T04:35:55;20.47;;;10.57;;
16669;SDS011;8448;52.034;5.158;2024-02-15T04:38:51;21.30;;;10.60;;
16669;SDS011;8448;52.034;5.158;2024-02-15T04:41:25;21.27;;;10.87;;
16669;SDS011;8448;52.034;5.158;2024-02-15T04:44:12;24.43;;;11.20;;
16669;SDS011;8448;52.034;5.158;2024-02-15T04:46:53;18.20;;;9.60;;
16669;SDS011;8448;52.034;5.158;2024-02-15T04:49:38;20.73;;;11.03;;
16669;SDS011;8448;52.034;5.158;2024-02-15T04:52:12;20.37;;;10.33;;
16669;SDS011;8448;52.034;5.158;2024-02-15T04:55:11;21.40;;;10.20;;
16669;SDS011;8448;52.034;5.158;2024-02-15T04:58:16;21.87;;;10.70;;
16669;SDS011;8448;52.034;5.158;2024-02-15T05:01:02;24.00;;;10.93;;
16669;SDS011;8448;52.034;5.158;2024-02-15T05:03:32;18.77;;;10.60;;
16669;SDS011;8448;52.034;5.158;2024-02-15T05:06:14;19.73;;;10.40;;
16669;SDS011;8448;52.034;5.158;2024-02-15T05:09:13;19.77;;;10.93;;
16669;SDS011;8448;52.034;5.158;2024-02-15T05:12:05;19.43;;;11.13;;
16669;SDS011;8448;52.034;5.158;2024-02-15T05:14:52;23.77;;;12.10;;
16669;SDS011;8448;52.034;5.158;2024-02-15T05:20:16;21.43;;;11.80;;
16669;SDS011;8448;52.034;5.158;2024-02-15T05:23:17;27.53;;;12.53;;
16669;SDS011;8448;52.034;5.158;2024-02-15T05:26:03;24.13;;;11.93;;
16669;SDS011;8448;52.034;5.158;2024-02-15T05:32:09;21.60;;;11.40;;
16669;SDS011;8448;52.034;5.158;2024-02-15T05:34:57;21.17;;;12.10;;
16669;SDS011;8448;52.034;5.158;2024-02-15T05:37:51;26.33;;;13.37;;
16669;SDS011;8448;52.034;5.158;2024-02-15T05:40:55;24.40;;;13.67;;
16669;SDS011;8448;52.034;5.158;2024-02-15T05:43:39;25.00;;;14.13;;
16669;SDS011;8448;52.034;5.158;2024-02-15T05:46:07;22.23;;;13.63;;
16669;SDS011;8448;52.034;5.158;2024-02-15T05:48:36;22.03;;;12.80;;
16669;SDS011;8448;52.034;5.158;2024-02-15T05:51:04;21.20;;;12.70;;
16669;SDS011;8448;52.034;5.158;2024-02-15T05:53:33;22.20;;;13.43;;
16669;SDS011;8448;52.034;5.158;2024-02-15T05:56:01;21.30;;;13.53;;
16669;SDS011;8448;52.034;5.158;2024-02-15T05:58:30;19.77;;;12.30;;
16669;SDS011;8448;52.034;5.158;2024-02-15T06:00:58;19.33;;;12.30;;
16669;SDS011;8448;52.034;5.158;2024-02-15T06:03:27;18.43;;;12.13;;
16669;SDS011;8448;52.034;5.158;2024-02-15T06:05:54;19.77;;;12.60;;
16669;SDS011;8448;52.034;5.158;2024-02-15T06:08:23;17.50;;;11.87;;
16669;SDS011;8448;52.034;5.158;2024-02-15T06:10:50;20.77;;;12.00;;
16669;SDS011;8448;52.034;5.158;2024-02-15T06:13:19;19.03;;;11.93;;
16669;SDS011;8448;52.034;5.158;2024-02-15T06:15:48;18.67;;;12.50;;
16669;SDS011;8448;52.034;5.158;2024-02-15T06:18:18;18.37;;;13.23;;
16669;SDS011;8448;52.034;5.158;2024-02-15T06:20:46;18.67;;;12.50;;
16669;SDS011;8448;52.034;5.158;2024-02-15T06:23:15;19.23;;;12.50;;
16669;SDS011;8448;52.034;5.158;2024-02-15T06:25:43;19.40;;;12.37;;
16669;SDS011;8448;52.034;5.158;2024-02-15T06:28:12;18.00;;;12.07;;
16669;SDS011;8448;52.034;5.158;2024-02-15T06:31:01;18.07;;;12.43;;
16669;SDS011;8448;52.034;5.158;2024-02-15T06:33:46;17.17;;;11.67;;
16669;SDS011;8448;52.034;5.158;2024-02-15T06:36:31;21.33;;;12.03;;
16669;SDS011;8448;52.034;5.158;2024-02-15T06:39:16;18.43;;;11.67;;
16669;SDS011;8448;52.034;5.158;2024-02-15T06:42:01;20.83;;;11.90;;
16669;SDS011;8448;52.034;5.158;2024-02-15T06:44:29;18.37;;;12.60;;
16669;SDS011;8448;52.034;5.158;2024-02-15T06:46:58;20.13;;;12.53;;
16669;SDS011;8448;52.034;5.158;2024-02-15T06:49:25;20.60;;;13.07;;
16669;SDS011;8448;52.034;5.158;2024-02-15T06:51:53;17.23;;;11.90;;
16669;SDS011;8448;52.034;5.158;2024-02-15T06:54:21;17.90;;;11.73;;
16669;SDS011;8448;52.034;5.158;2024-02-15T06:56:49;15.10;;;11.53;;
16669;SDS011;8448;52.034;5.158;2024-02-15T06:59:17;18.27;;;12.00;;
16669;SDS011;8448;52.034;5.158;2024-02-15T07:01:45;15.37;;;11.77;;
16669;SDS011;8448;52.034;5.158;2024-02-15T07:04:14;17.57;;;11.43;;
16669;SDS011;8448;52.034;5.158;2024-02-15T07:06:41;18.17;;;11.63;;
16669;SDS011;8448;52.034;5.158;2024-02-15T07:09:11;15.17;;;11.63;;
16669;SDS011;8448;52.034;5.158;2024-02-15T07:11:40;15.03;;;10.67;;
16669;SDS011;8448;52.034;5.158;2024-02-15T07:14:09;15.00;;;10.70;;
16669;SDS011;8448;52.034;5.158;2024-02-15T07:16:36;13.13;;;10.47;;
16669;SDS011;8448;52.034;5.158;2024-02-15T07:19:04;14.23;;;10.97;;
16669;SDS011;8448;52.034;5.158;2024-02-15T07:21:35;15.77;;;10.80;;
16669;SDS011;8448;52.034;5.158;2024-02-15T07:24:03;14.30;;;10.83;;
16669;SDS011;8448;52.034;5.158;2024-02-15T07:26:31;15.03;;;10.97;;
16669;SDS011;8448;52.034;5.158;2024-02-15T07:29:00;14.70;;;10.93;;
16669;SDS011;8448;52.034;5.158;2024-02-15T07:31:31;14.20;;;10.13;;
16669;SDS011;8448;52.034;5.158;2024-02-15T07:33:59;13.10;;;10.10;;
16669;SDS011;8448;52.034;5.158;2024-02-15T07:36:28;14.63;;;10.30;;
16669;SDS011;8448;52.034;5.158;2024-02-15T07:38:57;15.03;;;10.20;;
16669;SDS011;8448;52.034;5.158;2024-02-15T07:41:25;10.77;;;8.87;;
16669;SDS011;8448;52.034;5.158;2024-02-15T07:43:53;12.37;;;9.03;;
16669;SDS011;8448;52.034;5.158;2024-02-15T07:46:23;13.20;;;9.67;;
16669;SDS011;8448;52.034;5.158;2024-02-15T07:48:50;12.53;;;9.73;;
16669;SDS011;8448;52.034;5.158;2024-02-15T07:51:18;13.27;;;9.40;;
16669;SDS011;8448;52.034;5.158;2024-02-15T07:53:46;12.03;;;9.10;;
16669;SDS011;8448;52.034;5.158;2024-02-15T07:56:16;13.43;;;8.83;;
16669;SDS011;8448;52.034;5.158;2024-02-15T07:58:44;12.10;;;9.17;;
16669;SDS011;8448;52.034;5.158;2024-02-15T08:01:12;13.93;;;8.53;;
16669;SDS011;8448;52.034;5.158;2024-02-15T08:03:41;12.47;;;7.13;;
16669;SDS011;8448;52.034;5.158;2024-02-15T08:06:10;10.47;;;8.23;;
16669;SDS011;8448;52.034;5.158;2024-02-15T08:08:38;13.57;;;8.53;;
16669;SDS011;8448;52.034;5.158;2024-02-15T08:11:06;9.57;;;7.77;;
16669;SDS011;8448;52.034;5.158;2024-02-15T08:13:41;10.40;;;7.73;;
16669;SDS011;8448;52.034;5.158;2024-02-15T08:16:10;10.13;;;7.33;;
16669;SDS011;8448;52.034;5.158;2024-02-15T08:18:41;9.60;;;7.20;;
16669;SDS011;8448;52.034;5.158;2024-02-15T08:21:11;10.30;;;7.50;;
16669;SDS011;8448;52.034;5.158;2024-02-15T08:23:38;9.13;;;6.20;;
16669;SDS011;8448;52.034;5.158;2024-02-15T08:26:05;9.47;;;6.57;;
16669;SDS011;8448;52.034;5.158;2024-02-15T08:28:36;9.10;;;6.20;;
16669;SDS011;8448;52.034;5.158;2024-02-15T08:31:04;6.73;;;5.80;;
16669;SDS011;8448;52.034;5.158;2024-02-15T08:33:33;9.37;;;5.57;;
16669;SDS011;8448;52.034;5.158;2024-02-15T08:36:01;9.13;;;6.10;;
16669;SDS011;8448;52.034;5.158;2024-02-15T08:38:28;9.47;;;6.50;;
16669;SDS011;8448;52.034;5.158;2024-02-15T08:40:56;9.37;;;5.90;;
16669;SDS011;8448;52.034;5.158;2024-02-15T08:43:23;10.10;;;5.87;;
16669;SDS011;8448;52.034;5.158;2024-02-15T08:45:51;9.67;;;5.90;;
16669;SDS011;8448;52.034;5.158;2024-02-15T08:48:19;9.73;;;6.17;;
16669;SDS011;8448;52.034;5.158;2024-02-15T08:50:47;10.90;;;6.30;;
16669;SDS011;8448;52.034;5.158;2024-02-15T08:53:15;11.93;;;6.63;;
16669;SDS011;8448;52.034;5.158;2024-02-15T08:55:44;9.07;;;6.10;;
16669;SDS011;8448;52.034;5.158;2024-02-15T08:58:11;11.43;;;6.00;;
16669;SDS011;8448;52.034;5.158;2024-02-15T09:00:38;10.87;;;5.83;;
16669;SDS011;8448;52.034;5.158;2024-02-15T09:03:09;10.13;;;5.93;;
16669;SDS011;8448;52.034;5.158;2024-02-15T09:05:38;11.23;;;6.30;;
16669;SDS011;8448;52.034;5.158;2024-02-15T09:08:06;8.77;;;6.13;;
16669;SDS011;8448;52.034;5.158;2024-02-15T09:10:34;9.73;;;6.23;;
16669;SDS011;8448;52.034;5.158;2024-02-15T09:13:04;10.73;;;6.97;;
16669;SDS011;8448;52.034;5.158;2024-02-15T09:15:32;10.87;;;6.37;;
16669;SDS011;8448;52.034;5.158;2024-02-15T09:18:00;9.97;;;6.00;;
16669;SDS011;8448;52.034;5.158;2024-02-15T09:20:28;10.17;;;5.77;;
16669;SDS011;8448;52.034;5.158;2024-02-15T09:22:58;8.33;;;5.70;;
16669;SDS011;8448;52.034;5.158;2024-02-15T09:25:29;10.00;;;4.93;;
16669;SDS011;8448;52.034;5.158;2024-02-15T09:27:57;10.17;;;4.90;;
16669;SDS011;8448;52.034;5.158;2024-02-15T09:30:24;8.17;;;4.93;;
16669;SDS011;8448;52.034;5.158;2024-02-15T09:32:53;12.13;;;5.20;;
16669;SDS011;8448;52.034;5.158;2024-02-15T09:35:20;11.97;;;4.80;;
16669;SDS011;8448;52.034;5.158;2024-02-15T09:37:48;8.10;;;4.83;;
16669;SDS011;8448;52.034;5.158;2024-02-15T09:40:18;11.93;;;5.03;;
16669;SDS011;8448;52.034;5.158;2024-02-15T09:42:46;11.90;;;5.10;;
16669;SDS011;8448;52.034;5.158;2024-02-15T09:45:14;9.40;;;4.60;;
16669;SDS011;8448;52.034;5.158;2024-02-15T09:47:43;10.83;;;4.87;;
16669;SDS011;8448;52.034;5.158;2024-02-15T09:50:11;9.07;;;5.30;;
16669;SDS011;8448;52.034;5.158;2024-02-15T09:52:39;8.87;;;4.80;;
16669;SDS011;8448;52.034;5.158;2024-02-15T09:55:11;10.70;;;5.07;;
16669;SDS011;8448;52.034;5.158;2024-02-15T09:57:40;6.40;;;4.40;;
16669;SDS011;8448;52.034;5.158;2024-02-15T10:00:10;10.00;;;4.70;;
16669;SDS011;8448;52.034;5.158;2024-02-15T10:02:39;8.33;;;4.87;;
16669;SDS011;8448;52.034;5.158;2024-02-15T10:05:08;10.17;;;4.80;;
16669;SDS011;8448;52.034;5.158;2024-02-15T10:07:37;8.93;;;4.60;;
16669;SDS011;8448;52.034;5.158;2024-02-15T10:10:14;8.47;;;4.67;;
16669;SDS011;8448;52.034;5.158;2024-02-15T10:12:45;9.03;;;4.70;;
16669;SDS011;8448;52.034;5.158;2024-02-15T10:15:33;9.23;;;4.73;;
16669;SDS011;8448;52.034;5.158;2024-02-15T10:18:01;7.00;;;4.50;;
16669;SDS011;8448;52.034;5.158;2024-02-15T10:20:30;8.90;;;4.47;;
16669;SDS011;8448;52.034;5.158;2024-02-15T10:23:09;7.67;;;4.57;;
16669;SDS011;8448;52.034;5.158;2024-02-15T10:25:37;10.87;;;4.87;;
16669;SDS011;8448;52.034;5.158;2024-02-15T10:28:06;10.63;;;4.90;;
16669;SDS011;8448;52.034;5.158;2024-02-15T10:30:34;10.57;;;4.70;;
16669;SDS011;8448;52.034;5.158;2024-02-15T10:33:02;8.80;;;4.50;;
16669;SDS011;8448;52.034;5.158;2024-02-15T10:35:30;11.23;;;5.00;;
16669;SDS011;8448;52.034;5.158;2024-02-15T10:38:05;6.40;;;4.43;;
16669;SDS011;8448;52.034;5.158;2024-02-15T10:40:34;9.20;;;4.43;;
16669;SDS011;8448;52.034;5.158;2024-02-15T10:43:02;9.13;;;4.90;;
16669;SDS011;8448;52.034;5.158;2024-02-15T10:45:32;10.00;;;4.80;;
16669;SDS011;8448;52.034;5.158;2024-02-15T10:48:02;11.50;;;5.10;;
16669;SDS011;8448;52.034;5.158;2024-02-15T10:50:30;9.33;;;4.90;;
16669;SDS011;8448;52.034;5.158;2024-02-15T10:52:58;10.30;;;5.13;;
16669;SDS011;8448;52.034;5.158;2024-02-15T10:55:29;9.40;;;5.50;;
16669;SDS011;8448;52.034;5.158;2024-02-15T10:58:05;11.80;;;5.67;;
16669;SDS011;8448;52.034;5.158;2024-02-15T11:00:34;14.37;;;5.53;;
16669;SDS011;8448;52.034;5.158;2024-02-15T11:03:05;9.90;;;5.37;;
16669;SDS011;8448;52.034;5.158;2024-02-15T11:05:34;11.00;;;6.03;;
16669;SDS011;8448;52.034;5.158;2024-02-15T11:08:03;12.00;;;6.30;;
16669;SDS011;8448;52.034;5.158;2024-02-15T11:10:33;12.90;;;6.67;;
16669;SDS011;8448;52.034;5.158;2024-02-15T11:13:01;10.93;;;6.63;;
16669;SDS011;8448;52.034;5.158;2024-02-15T11:15:43;10.73;;;6.73;;
16669;SDS011;8448;52.034;5.158;2024-02-15T11:18:26;11.77;;;6.73;;
16669;SDS011;8448;52.034;5.158;2024-02-15T11:21:10;10.57;;;6.83;;
16669;SDS011;8448;52.034;5.158;2024-02-15T11:23:38;10.77;;;7.13;;
16669;SDS011;8448;52.034;5.158;2024-02-15T11:26:10;12.60;;;7.37;;
16669;SDS011;8448;52.034;5.158;2024-02-15T11:28:52;10.47;;;7.50;;
16669;SDS011;8448;52.034;5.158;2024-02-15T11:40:12;11.87;;;7.67;;
16669;SDS011;8448;52.034;5.158;2024-02-15T11:42:39;10.40;;;7.30;;
16669;SDS011;8448;52.034;5.158;2024-02-15T11:45:06;12.47;;;7.40;;
16669;SDS011;8448;52.034;5.158;2024-02-15T11:47:37;10.27;;;7.60;;
16669;SDS011;8448;52.034;5.158;2024-02-15T11:50:07;10.27;;;6.90;;
16669;SDS011;8448;52.034;5.158;2024-02-15T11:52:37;9.20;;;6.73;;
16669;SDS011;8448;52.034;5.158;2024-02-15T11:55:07;10.63;;;7.00;;
16669;SDS011;8448;52.034;5.158;2024-02-15T11:57:38;10.50;;;6.93;;
16669;SDS011;8448;52.034;5.158;2024-02-15T12:00:22;13.03;;;7.43;;
16669;SDS011;8448;52.034;5.158;2024-02-15T12:03:09;11.70;;;7.53;;
16669;SDS011;8448;52.034;5.158;2024-02-15T12:05:54;10.27;;;7.33;;
16669;SDS011;8448;52.034;5.158;2024-02-15T12:08:39;9.67;;;7.53;;
16669;SDS011;8448;52.034;5.158;2024-02-15T12:11:27;10.27;;;7.20;;
16669;SDS011;8448;52.034;5.158;2024-02-15T12:14:12;8.93;;;6.97;;
16669;SDS011;8448;52.034;5.158;2024-02-15T12:16:59;9.63;;;6.47;;
16669;SDS011;8448;52.034;5.158;2024-02-15T12:19:46;8.85;;;5.90;;
16669;SDS011;8448;52.034;5.158;2024-02-15T12:22:14;9.70;;;5.65;;
16669;SDS011;8448;52.034;5.158;2024-02-15T12:24:52;7.78;;;4.40;;
16669;SDS011;8448;52.034;5.158;2024-02-15T12:27:21;7.63;;;4.88;;
16669;SDS011;8448;52.034;5.158;2024-02-15T12:29:55;5.50;;;3.75;;
16669;SDS011;8448;52.034;5.158;2024-02-15T12:32:24;6.63;;;3.85;;
16669;SDS011;8448;52.034;5.158;2024-02-15T12:35:01;6.43;;;3.63;;
16669;SDS011;8448;52.034;5.158;2024-02-15T12:37:38;6.43;;;3.00;;
16669;SDS011;8448;52.034;5.158;2024-02-15T12:40:12;5.40;;;3.03;;
16669;SDS011;8448;52.034;5.158;2024-02-15T12:42:42;4.03;;;2.75;;
16669;SDS011;8448;52.034;5.158;2024-02-15T12:45:16;5.22;;;3.00;;
16669;SDS011;8448;52.034;5.158;2024-02-15T12:47:46;5.63;;;3.13;;
16669;SDS011;8448;52.034;5.158;2024-02-15T12:50:16;4.60;;;2.63;;
16669;SDS011;8448;52.034;5.158;2024-02-15T12:52:45;5.60;;;2.90;;
16669;SDS011;8448;52.034;5.158;2024-02-15T12:55:14;4.85;;;2.78;;
16669;SDS011;8448;52.034;5.158;2024-02-15T12:57:43;5.95;;;3.08;;
16669;SDS011;8448;52.034;5.158;2024-02-15T13:00:16;6.97;;;3.28;;
16669;SDS011;8448;52.034;5.158;2024-02-15T13:02:46;6.18;;;3.25;;
16669;SDS011;8448;52.034;5.158;2024-02-15T13:05:16;7.22;;;3.20;;
16669;SDS011;8448;52.034;5.158;2024-02-15T13:07:45;5.00;;;2.60;;
16669;SDS011;8448;52.034;5.158;2024-02-15T13:10:12;6.85;;;2.63;;
16669;SDS011;8448;52.034;5.158;2024-02-15T13:12:41;6.22;;;2.55;;
16669;SDS011;8448;52.034;5.158;2024-02-15T13:15:09;5.20;;;2.50;;
16669;SDS011;8448;52.034;5.158;2024-02-15T13:17:40;4.28;;;2.40;;
16669;SDS011;8448;52.034;5.158;2024-02-15T13:20:11;5.15;;;2.72;;
16669;SDS011;8448;52.034;5.158;2024-02-15T13:22:41;7.05;;;2.90;;
16669;SDS011;8448;52.034;5.158;2024-02-15T13:25:10;5.75;;;2.88;;
16669;SDS011;8448;52.034;5.158;2024-02-15T13:27:37;6.25;;;3.00;;
16669;SDS011;8448;52.034;5.158;2024-02-15T13:30:05;6.32;;;2.80;;
16669;SDS011;8448;52.034;5.158;2024-02-15T13:32:35;6.00;;;2.90;;
16669;SDS011;8448;52.034;5.158;2024-02-15T13:35:03;5.10;;;2.70;;
16669;SDS011;8448;52.034;5.158;2024-02-15T13:37:40;5.60;;;2.45;;
16669;SDS011;8448;52.034;5.158;2024-02-15T13:40:12;5.22;;;2.53;;
16669;SDS011;8448;52.034;5.158;2024-02-15T13:42:41;5.60;;;2.72;;
16669;SDS011;8448;52.034;5.158;2024-02-15T13:45:14;5.60;;;2.80;;
16669;SDS011;8448;52.034;5.158;2024-02-15T13:47:43;4.55;;;2.40;;
16669;SDS011;8448;52.034;5.158;2024-02-15T13:50:12;4.65;;;2.65;;
16669;SDS011;8448;52.034;5.158;2024-02-15T13:52:42;5.57;;;2.80;;
16669;SDS011;8448;52.034;5.158;2024-02-15T13:55:10;4.90;;;2.28;;
16669;SDS011;8448;52.034;5.158;2024-02-15T13:57:40;4.88;;;2.58;;
16669;SDS011;8448;52.034;5.158;2024-02-15T14:00:09;5.43;;;2.75;;
16669;SDS011;8448;52.034;5.158;2024-02-15T14:02:46;6.18;;;2.50;;
16669;SDS011;8448;52.034;5.158;2024-02-15T14:05:14;5.68;;;2.42;;
16669;SDS011;8448;52.034;5.158;2024-02-15T14:07:47;3.50;;;2.10;;
16669;SDS011;8448;52.034;5.158;2024-02-15T14:10:15;4.55;;;2.40;;
16669;SDS011;8448;52.034;5.158;2024-02-15T14:12:44;4.65;;;2.20;;
16669;SDS011;8448;52.034;5.158;2024-02-15T14:15:12;5.10;;;2.30;;
16669;SDS011;8448;52.034;5.158;2024-02-15T14:17:40;4.38;;;2.42;;
16669;SDS011;8448;52.034;5.158;2024-02-15T14:20:09;5.95;;;2.25;;
16669;SDS011;8448;52.034;5.158;2024-02-15T14:22:39;5.50;;;2.47;;
16669;SDS011;8448;52.034;5.158;2024-02-15T14:25:08;4.18;;;2.53;;
16669;SDS011;8448;52.034;5.158;2024-02-15T14:27:37;4.18;;;2.63;;
16669;SDS011;8448;52.034;5.158;2024-02-15T14:30:05;5.75;;;2.35;;
16669;SDS011;8448;52.034;5.158;2024-02-15T14:32:51;5.53;;;2.55;;
16669;SDS011;8448;52.034;5.158;2024-02-15T14:35:29;5.03;;;2.40;;
16669;SDS011;8448;52.034;5.158;2024-02-15T14:38:00;6.18;;;2.63;;
16669;SDS011;8448;52.034;5.158;2024-02-15T14:40:32;5.85;;;2.22;;
16669;SDS011;8448;52.034;5.158;2024-02-15T14:43:00;5.45;;;2.67;;
16669;SDS011;8448;52.034;5.158;2024-02-15T14:45:29;6.55;;;2.67;;
16669;SDS011;8448;52.034;5.158;2024-02-15T14:47:57;5.07;;;2.25;;
16669;SDS011;8448;52.034;5.158;2024-02-15T14:50:25;4.80;;;2.38;;
16669;SDS011;8448;52.034;5.158;2024-02-15T14:52:52;5.45;;;2.20;;
16669;SDS011;8448;52.034;5.158;2024-02-15T14:55:20;5.93;;;2.33;;
16669;SDS011;8448;52.034;5.158;2024-02-15T14:57:49;4.00;;;2.50;;
16669;SDS011;8448;52.034;5.158;2024-02-15T15:00:17;4.80;;;2.70;;
16669;SDS011;8448;52.034;5.158;2024-02-15T15:02:47;6.05;;;2.58;;
16669;SDS011;8448;52.034;5.158;2024-02-15T15:05:15;7.15;;;2.72;;
16669;SDS011;8448;52.034;5.158;2024-02-15T15:08:00;7.38;;;2.67;;
16669;SDS011;8448;52.034;5.158;2024-02-15T15:10:46;5.82;;;2.67;;
16669;SDS011;8448;52.034;5.158;2024-02-15T15:13:33;5.80;;;2.90;;
16669;SDS011;8448;52.034;5.158;2024-02-15T15:16:00;6.05;;;3.03;;
16669;SDS011;8448;52.034;5.158;2024-02-15T15:18:28;6.03;;;2.50;;
16669;SDS011;8448;52.034;5.158;2024-02-15T15:20:56;4.65;;;2.67;;
16669;SDS011;8448;52.034;5.158;2024-02-15T15:23:24;6.25;;;2.85;;
16669;SDS011;8448;52.034;5.158;2024-02-15T15:25:52;4.72;;;2.75;;
16669;SDS011;8448;52.034;5.158;2024-02-15T15:28:20;6.18;;;2.97;;
16669;SDS011;8448;52.034;5.158;2024-02-15T15:30:50;4.22;;;3.13;;
16669;SDS011;8448;52.034;5.158;2024-02-15T15:33:18;5.78;;;2.80;;
16669;SDS011;8448;52.034;5.158;2024-02-15T15:35:46;4.80;;;2.70;;
16669;SDS011;8448;52.034;5.158;2024-02-15T15:38:14;4.32;;;2.70;;
16669;SDS011;8448;52.034;5.158;2024-02-15T15:40:41;5.57;;;3.10;;
16669;SDS011;8448;52.034;5.158;2024-02-15T15:43:09;5.22;;;2.55;;
16669;SDS011;8448;52.034;5.158;2024-02-15T15:45:39;4.32;;;2.30;;
16669;SDS011;8448;52.034;5.158;2024-02-15T15:48:08;5.28;;;2.45;;
16669;SDS011;8448;52.034;5.158;2024-02-15T15:50:36;4.10;;;2.60;;
16669;SDS011;8448;52.034;5.158;2024-02-15T15:53:05;6.72;;;2.70;;